Time;durP1;ratioP1;P1;durP2;ratioP2;P2;SDS_P1;SDS_P2;PMS_P1;PMS_P2;Temp;Humidity;BMP_temperature;BMP_pressure;BME280_temperature;BME280_humidity;BME280_pressure;Samples;Min_cycle;Max_cycle;Signal;HPM_P1;HPM_P2
2021/03/25 00:01:41;;;;;;;33.72;19.23;;;0.20;98.50;;;;;;5031640;28;20049;-82
2021/03/25 00:04:06;;;;;;;32.67;19.92;;;0.10;98.60;;;;;;5032224;28;20025;-80
2021/03/25 00:06:49;;;;;;;33.17;20.42;;;0.10;99.00;;;;;;5032171;28;20033;-81
2021/03/25 00:09:36;;;;;;;34.25;20.15;;;0.10;99.00;;;;;;5032211;28;20041;-84
2021/03/25 00:12:02;;;;;;;35.00;20.15;;;0.10;99.20;;;;;;5031569;28;20084;-80
2021/03/25 00:14:28;;;;;;;35.58;20.65;;;0.10;99.40;;;;;;5030894;28;20412;-80
2021/03/25 00:16:54;;;;;;;37.95;21.45;;;0.10;98.80;;;;;;5031068;28;20028;-82
2021/03/25 00:19:21;;;;;;;37.83;20.13;;;0.00;99.20;;;;;;5031167;28;20164;-79
2021/03/25 00:21:47;;;;;;;36.63;20.25;;;0.20;98.80;;;;;;5030656;28;20021;-82
2021/03/25 00:24:15;;;;;;;38.50;20.60;;;-0.10;98.80;;;;;;5031173;28;20495;-79
2021/03/25 00:26:41;;;;;;;35.72;19.52;;;-0.10;98.70;;;;;;5031131;28;20350;-82
2021/03/25 00:29:08;;;;;;;36.60;20.70;;;-0.10;98.70;;;;;;5031219;28;20033;-79
2021/03/25 00:31:33;;;;;;;33.88;19.90;;;-0.10;98.60;;;;;;5031078;28;20021;-79
2021/03/25 00:33:59;;;;;;;32.20;20.10;;;-0.10;99.10;;;;;;5032560;28;20025;-80
2021/03/25 00:36:25;;;;;;;36.38;20.17;;;-0.10;99.30;;;;;;5031091;28;20531;-78
2021/03/25 00:38:50;;;;;;;32.20;19.52;;;-0.20;99.20;;;;;;5031871;28;20025;-78
2021/03/25 00:41:16;;;;;;;39.92;20.88;;;-0.20;99.40;;;;;;5030839;28;20064;-78
2021/03/25 00:43:42;;;;;;;29.65;18.30;;;-0.20;99.40;;;;;;5030819;28;20448;-78
2021/03/25 00:46:08;;;;;;;31.15;19.40;;;-0.30;99.20;;;;;;5030521;28;20465;-79
2021/03/25 00:48:33;;;;;;;34.85;19.60;;;-0.30;99.20;;;;;;5030218;28;20420;-78
2021/03/25 00:51:01;;;;;;;31.85;18.73;;;-0.30;99.10;;;;;;5030706;28;20025;-79
2021/03/25 00:53:32;;;;;;;35.70;18.75;;;-0.30;98.80;;;;;;5031188;28;20384;-78
2021/03/25 00:55:58;;;;;;;31.95;19.13;;;-0.30;98.90;;;;;;5030684;28;20022;-80
2021/03/25 00:58:24;;;;;;;34.15;19.85;;;-0.30;99.20;;;;;;5031393;28;20534;-79
2021/03/25 01:00:50;;;;;;;34.70;19.10;;;-0.40;99.20;;;;;;5007439;28;665152;-78
2021/03/25 01:03:19;;;;;;;35.75;19.27;;;-0.40;99.40;;;;;;5032750;28;20041;-78
2021/03/25 01:05:45;;;;;;;33.92;19.23;;;-0.50;99.60;;;;;;5032648;28;20100;-78
2021/03/25 01:08:12;;;;;;;35.55;20.40;;;-0.50;99.50;;;;;;5032473;28;20034;-79
2021/03/25 01:10:50;;;;;;;33.58;19.23;;;-0.50;99.40;;;;;;5031575;28;20037;-80
2021/03/25 01:13:22;;;;;;;31.08;18.67;;;-0.60;99.20;;;;;;5033877;28;20129;-79
2021/03/25 01:15:47;;;;;;;33.67;19.38;;;-0.60;99.10;;;;;;5036314;28;20033;-78
2021/03/25 01:18:13;;;;;;;29.80;18.15;;;-0.60;99.30;;;;;;5034644;28;20026;-79
2021/03/25 01:20:42;;;;;;;36.25;19.80;;;-0.60;99.60;;;;;;5035951;28;20037;-78
2021/03/25 01:23:09;;;;;;;33.58;17.98;;;-0.70;99.80;;;;;;5036331;28;20013;-78
2021/03/25 01:25:36;;;;;;;31.15;18.52;;;-0.60;99.50;;;;;;5035003;28;20029;-77
2021/03/25 01:28:05;;;;;;;31.25;18.75;;;-0.70;99.80;;;;;;5034514;28;20370;-79
2021/03/25 01:30:32;;;;;;;30.77;17.73;;;-0.70;99.90;;;;;;5034505;28;20026;-78
2021/03/25 01:33:00;;;;;;;30.77;18.55;;;-0.70;99.80;;;;;;5036254;28;20057;-79
2021/03/25 01:35:27;;;;;;;39.05;20.25;;;-0.70;99.70;;;;;;5035835;28;20025;-78
2021/03/25 01:37:52;;;;;;;31.58;18.80;;;-0.70;99.90;;;;;;5034657;28;20079;-80
2021/03/25 01:40:32;;;;;;;30.05;18.67;;;-0.70;99.90;;;;;;5034502;28;20025;-79
2021/03/25 01:43:20;;;;;;;31.52;18.52;;;-0.70;99.90;;;;;;5034620;28;20060;-78
2021/03/25 01:46:01;;;;;;;33.55;18.80;;;-0.70;99.90;;;;;;5034626;28;20523;-80
2021/03/25 01:48:31;;;;;;;35.22;18.65;;;-0.80;99.90;;;;;;5035288;28;20116;-79
2021/03/25 01:51:00;;;;;;;31.60;18.35;;;-0.80;99.90;;;;;;5035159;28;20138;-82
2021/03/25 01:53:53;;;;;;;35.67;19.70;;;-0.70;99.90;;;;;;5036561;28;20477;-82
2021/03/25 01:56:34;;;;;;;33.15;19.13;;;-0.70;99.90;;;;;;5035594;28;20432;-80
2021/03/25 01:59:09;;;;;;;29.30;17.40;;;-0.70;99.90;;;;;;5036464;28;20361;-81
2021/03/25 02:01:50;;;;;;;29.58;17.55;;;-0.70;99.90;;;;;;5035670;28;20096;-81
2021/03/25 02:04:51;;;;;;;35.65;18.77;;;-0.70;99.90;;;;;;5035587;28;20148;-79
2021/03/25 02:07:37;;;;;;;30.17;18.23;;;-0.60;99.80;;;;;;5017679;28;20026;-78
2021/03/25 02:10:22;;;;;;;33.20;19.73;;;-0.70;99.70;;;;;;5035929;28;20376;-79
2021/03/25 02:12:51;;;;;;;27.95;17.58;;;-0.80;99.90;;;;;;5017925;28;20071;-78
2021/03/25 02:15:35;;;;;;;32.05;17.10;;;-0.80;99.90;;;;;;5017649;28;20025;-79
2021/03/25 02:18:10;;;;;;;27.80;17.20;;;-0.80;99.90;;;;;;5017787;28;20029;-79
2021/03/25 02:21:16;;;;;;;30.10;16.85;;;-0.80;99.90;;;;;;5017556;28;20022;-78
2021/03/25 02:23:56;;;;;;;30.95;18.23;;;-1.00;99.90;;;;;;4975375;28;20034;-79
2021/03/25 02:26:27;;;;;;;31.15;18.02;;;-0.80;99.90;;;;;;5017166;28;20029;-78
2021/03/25 02:29:13;;;;;;;31.77;18.83;;;-0.90;99.90;;;;;;5034824;28;20496;-79
2021/03/25 02:31:46;;;;;;;28.85;17.35;;;-0.90;99.90;;;;;;5017504;28;20017;-79
2021/03/25 02:34:17;;;;;;;33.85;18.40;;;-0.90;99.90;;;;;;5017217;28;20499;-81
2021/03/25 02:36:44;;;;;;;33.13;17.58;;;-1.00;99.90;;;;;;5017299;28;20400;-78
2021/03/25 02:39:16;;;;;;;27.83;17.55;;;-1.00;99.90;;;;;;5017038;28;20028;-79
2021/03/25 02:41:45;;;;;;;31.83;17.60;;;-1.10;99.90;;;;;;5034768;28;20033;-78
2021/03/25 02:44:31;;;;;;;35.40;18.08;;;-1.10;99.90;;;;;;5034627;28;20017;-79
2021/03/25 02:47:05;;;;;;;35.05;17.95;;;-1.10;99.90;;;;;;5016905;28;20484;-80
2021/03/25 02:49:36;;;;;;;34.05;18.55;;;-1.10;99.90;;;;;;5016823;28;20029;-79
2021/03/25 02:52:07;;;;;;;31.90;18.02;;;-1.10;99.90;;;;;;5016799;28;20021;-80
2021/03/25 02:54:33;;;;;;;29.35;17.08;;;-1.20;99.90;;;;;;5017042;28;20033;-81
2021/03/25 02:57:11;;;;;;;30.73;17.13;;;-1.20;99.90;;;;;;5016829;28;20029;-79
2021/03/25 02:59:40;;;;;;;30.67;18.30;;;-1.20;99.90;;;;;;5016632;28;20370;-78
2021/03/25 03:02:12;;;;;;;34.42;17.25;;;-1.20;99.90;;;;;;5028124;28;20041;-79
2021/03/25 03:04:40;;;;;;;30.50;17.67;;;-1.20;99.90;;;;;;5032788;28;20432;-79
2021/03/25 03:07:12;;;;;;;31.65;17.50;;;-1.10;99.90;;;;;;5033036;28;20028;-78
2021/03/25 03:09:46;;;;;;;29.92;17.80;;;-1.20;99.90;;;;;;5033120;28;20365;-80
2021/03/25 03:12:30;;;;;;;30.73;18.02;;;-1.20;99.90;;;;;;5034005;28;20020;-78
2021/03/25 03:15:02;;;;;;;39.70;18.17;;;-1.10;99.90;;;;;;5033021;28;20040;-78
2021/03/25 03:17:42;;;;;;;31.45;18.50;;;-1.30;99.90;;;;;;5032435;28;20056;-79
2021/03/25 03:20:14;;;;;;;30.73;17.38;;;-1.30;99.90;;;;;;5032746;28;20128;-78
2021/03/25 03:22:40;;;;;;;33.15;16.85;;;-1.30;99.90;;;;;;5032970;28;20028;-79
2021/03/25 03:25:13;;;;;;;33.20;17.27;;;-1.20;99.90;;;;;;5032953;28;20025;-79
2021/03/25 03:28:03;;;;;;;30.00;17.60;;;-1.30;99.90;;;;;;5032489;28;20033;-78
2021/03/25 03:30:33;;;;;;;29.33;16.85;;;-1.30;99.90;;;;;;5032014;28;20039;-79
2021/03/25 03:33:09;;;;;;;33.47;19.23;;;-1.40;99.90;;;;;;5032688;28;20040;-81
2021/03/25 03:35:41;;;;;;;31.70;18.42;;;-1.40;99.90;;;;;;5032691;28;20143;-80
2021/03/25 03:38:14;;;;;;;28.55;16.63;;;-1.50;99.90;;;;;;5033845;28;20030;-79
2021/03/25 03:40:43;;;;;;;32.33;17.98;;;-1.50;99.90;;;;;;5033920;28;20028;-78
2021/03/25 03:43:14;;;;;;;29.23;17.15;;;-1.40;99.90;;;;;;5032560;28;20032;-79
2021/03/25 03:45:55;;;;;;;30.48;18.23;;;-1.40;99.90;;;;;;5032306;28;20021;-78
2021/03/25 03:48:34;;;;;;;30.23;18.23;;;-1.50;99.90;;;;;;5032139;28;20688;-80
2021/03/25 03:51:03;;;;;;;31.50;17.65;;;-1.50;99.90;;;;;;5033439;28;20021;-78
2021/03/25 03:53:29;;;;;;;32.70;17.75;;;-1.50;99.90;;;;;;5032347;28;20029;-79
2021/03/25 03:56:06;;;;;;;46.08;20.73;;;-1.50;99.90;;;;;;5032052;28;20086;-80
2021/03/25 03:58:43;;;;;;;34.75;21.00;;;-1.60;99.90;;;;;;5031964;28;20041;-80
2021/03/25 04:01:18;;;;;;;34.97;19.48;;;-1.60;99.90;;;;;;5031841;28;20440;-80
2021/03/25 04:03:49;;;;;;;30.05;18.23;;;-1.60;99.90;;;;;;5031963;28;20053;-79
2021/03/25 04:06:25;;;;;;;30.50;19.08;;;-1.50;99.90;;;;;;5033138;28;20101;-80
2021/03/25 04:09:06;;;;;;;28.73;18.35;;;-1.50;99.90;;;;;;5033085;28;20040;-81
2021/03/25 04:11:45;;;;;;;32.05;18.35;;;-1.50;99.90;;;;;;5033130;28;20034;-79
2021/03/25 04:14:21;;;;;;;27.80;17.67;;;-1.50;99.90;;;;;;5031428;28;20025;-80
2021/03/25 04:16:48;;;;;;;31.27;19.33;;;-1.50;99.90;;;;;;5031546;28;20032;-80
2021/03/25 04:19:39;;;;;;;33.45;18.75;;;-1.60;99.90;;;;;;5031910;28;20508;-80
2021/03/25 04:22:10;;;;;;;31.17;18.25;;;-1.70;99.90;;;;;;5032909;28;20025;-78
2021/03/25 04:24:46;;;;;;;32.85;19.42;;;-1.70;99.90;;;;;;5031906;28;20025;-80
2021/03/25 04:27:31;;;;;;;31.92;19.02;;;-1.70;99.90;;;;;;5031334;28;20065;-81
2021/03/25 04:30:09;;;;;;;29.98;18.15;;;-1.80;99.90;;;;;;5032957;28;20533;-78
2021/03/25 04:32:36;;;;;;;32.00;17.80;;;-1.80;99.90;;;;;;5031718;28;20021;-80
2021/03/25 04:35:05;;;;;;;34.97;18.33;;;-1.80;99.90;;;;;;5031733;28;20422;-82
2021/03/25 04:37:32;;;;;;;34.35;18.95;;;-1.80;99.90;;;;;;5031857;28;20032;-80
2021/03/25 04:39:59;;;;;;;37.22;16.95;;;-1.80;99.90;;;;;;5032153;28;20022;-81
2021/03/25 04:42:25;;;;;;;36.90;20.15;;;-1.30;99.90;;;;;;5035343;28;20076;-80
2021/03/25 04:45:13;;;;;;;32.15;18.20;;;-1.00;99.90;;;;;;5032029;28;20029;-82
2021/03/25 04:47:44;;;;;;;30.00;18.23;;;-1.20;99.90;;;;;;5038926;28;20037;-80
2021/03/25 04:50:24;;;;;;;31.98;18.30;;;-1.40;99.90;;;;;;5035924;28;20417;-81
2021/03/25 04:53:04;;;;;;;35.78;18.10;;;-1.60;99.90;;;;;;5036751;28;20034;-79
2021/03/25 04:55:34;;;;;;;33.47;17.65;;;-1.60;99.90;;;;;;5036827;28;20072;-80
2021/03/25 04:58:05;;;;;;;34.10;18.33;;;-1.70;99.90;;;;;;5035031;28;20068;-80
2021/03/25 05:00:36;;;;;;;31.60;18.10;;;-1.70;99.90;;;;;;5037590;28;20040;-81
2021/03/25 05:03:03;;;;;;;33.42;17.83;;;-1.80;99.90;;;;;;5036882;28;20017;-80
2021/03/25 05:05:31;;;;;;;34.63;19.05;;;-1.70;99.90;;;;;;5003141;28;20021;-80
2021/03/25 05:08:06;;;;;;;35.75;19.10;;;-1.80;99.90;;;;;;4999870;28;20068;-79
2021/03/25 05:11:13;;;;;;;31.33;17.95;;;-1.80;99.90;;;;;;5016713;28;20547;-80
2021/03/25 05:13:42;;;;;;;32.45;18.90;;;-1.80;99.90;;;;;;4936807;29;20383;-79
2021/03/25 05:16:07;;;;;;;34.25;20.42;;;-1.80;99.90;;;;;;4987719;28;20026;-80
2021/03/25 05:18:37;;;;;;;38.75;20.75;;;-1.80;99.90;;;;;;5016877;28;20028;-80
2021/03/25 05:21:10;;;;;;;37.88;20.88;;;-1.80;99.90;;;;;;4999078;28;20373;-78
2021/03/25 05:24:02;;;;;;;36.05;19.90;;;-1.80;99.90;;;;;;5016711;28;20045;-80
2021/03/25 05:26:42;;;;;;;33.08;18.27;;;-1.70;99.90;;;;;;5016455;28;20014;-79
2021/03/25 05:29:09;;;;;;;30.70;18.05;;;-1.70;99.90;;;;;;4998732;28;20045;-78
2021/03/25 05:31:37;;;;;;;39.80;20.45;;;-1.60;99.90;;;;;;4998666;28;20029;-80
2021/03/25 05:34:07;;;;;;;29.88;18.50;;;-1.50;99.90;;;;;;5015922;28;20033;-80
2021/03/25 05:36:33;;;;;;;33.13;18.83;;;-1.50;99.90;;;;;;4998769;28;20033;-79
2021/03/25 05:38:59;;;;;;;33.80;18.55;;;-1.50;99.90;;;;;;4999059;28;20026;-80
2021/03/25 05:41:52;;;;;;;31.50;18.20;;;-1.50;99.90;;;;;;4998695;28;20030;-79
2021/03/25 05:44:42;;;;;;;32.53;18.42;;;-1.50;99.90;;;;;;5016350;28;20033;-80
2021/03/25 05:47:22;;;;;;;32.83;18.38;;;-1.40;99.90;;;;;;5016508;28;20121;-81
2021/03/25 05:50:04;;;;;;;39.33;19.38;;;-1.30;99.90;;;;;;4998864;28;20072;-79
2021/03/25 05:52:40;;;;;;;35.33;19.35;;;-1.30;99.90;;;;;;4998984;28;20121;-79
2021/03/25 05:55:15;;;;;;;;;;;-1.20;99.90;;;;;;5016894;28;20489;-79
2021/03/25 05:57:59;;;;;;;51.17;27.10;;;-1.10;99.90;;;;;;4998364;28;19935;-80
2021/03/25 06:00:36;;;;;;;44.05;23.77;;;-1.00;99.90;;;;;;5016934;28;20033;-80
2021/03/25 06:03:10;;;;;;;37.47;20.45;;;-0.90;99.90;;;;;;5034624;28;20060;-79
2021/03/25 06:05:35;;;;;;;37.80;20.63;;;-0.90;99.90;;;;;;5034385;28;20025;-78
2021/03/25 06:08:23;;;;;;;33.47;18.80;;;-0.80;99.90;;;;;;5034328;28;20092;-79
2021/03/25 06:10:57;;;;;;;30.38;17.67;;;-0.70;99.90;;;;;;5034473;28;20038;-80
2021/03/25 06:13:41;;;;;;;37.22;20.58;;;-0.60;99.90;;;;;;5034655;28;20426;-79
2021/03/25 06:16:15;;;;;;;36.13;18.10;;;-0.60;99.90;;;;;;5035277;28;20028;-79
2021/03/25 06:18:47;;;;;;;34.80;19.60;;;-0.60;99.90;;;;;;5034053;28;20048;-80
2021/03/25 06:21:22;;;;;;;32.13;18.77;;;-0.40;99.90;;;;;;5034222;28;20029;-80
2021/03/25 06:24:15;;;;;;;31.15;19.27;;;-0.40;99.90;;;;;;5034013;28;20033;-78
2021/03/25 06:27:15;;;;;;;34.40;20.38;;;-0.30;99.90;;;;;;5035652;28;20036;-78
2021/03/25 06:29:51;;;;;;;35.95;19.95;;;-0.20;99.90;;;;;;5033962;28;20381;-80
2021/03/25 06:32:34;;;;;;;37.08;19.50;;;-0.10;99.90;;;;;;5035515;28;20377;-80
2021/03/25 06:35:10;;;;;;;35.05;19.25;;;0.00;99.90;;;;;;5033876;28;20032;-81
2021/03/25 06:37:42;;;;;;;30.75;18.83;;;0.10;99.90;;;;;;5033806;28;20037;-79
2021/03/25 06:40:17;;;;;;;31.30;19.45;;;0.20;99.90;;;;;;5034215;28;20022;-79
2021/03/25 06:42:57;;;;;;;38.30;19.92;;;0.30;99.90;;;;;;5033759;28;20036;-80
2021/03/25 06:45:26;;;;;;;37.25;20.63;;;0.40;99.90;;;;;;5034747;28;20030;-80
2021/03/25 06:48:10;;;;;;;32.63;20.45;;;0.60;99.90;;;;;;5033737;28;20497;-78
2021/03/25 06:50:49;;;;;;;34.90;19.95;;;0.70;99.90;;;;;;5034734;28;20055;-79
2021/03/25 06:53:33;;;;;;;31.98;19.13;;;0.80;99.80;;;;;;5033291;28;20107;-81
2021/03/25 06:55:59;;;;;;;40.95;20.23;;;1.00;99.40;;;;;;5034285;28;20018;-78
2021/03/25 06:58:32;;;;;;;39.47;21.95;;;1.10;99.10;;;;;;5034268;28;20032;-80
2021/03/25 07:01:57;;;;;;;42.75;23.65;;;1.30;98.90;;;;;;5032977;28;20029;-79
2021/03/25 07:04:29;;;;;;;37.83;19.95;;;1.40;98.50;;;;;;4995673;28;20088;-80
2021/03/25 07:07:00;;;;;;;39.55;21.17;;;1.60;98.10;;;;;;5030514;28;20049;-81
2021/03/25 07:09:37;;;;;;;31.58;19.38;;;1.80;97.70;;;;;;5032091;28;20116;-81
2021/03/25 07:12:05;;;;;;;34.42;20.20;;;2.00;97.30;;;;;;5033343;28;20127;-80
2021/03/25 07:14:37;;;;;;;31.65;19.67;;;2.10;96.90;;;;;;5032881;28;20061;-79
2021/03/25 07:17:05;;;;;;;38.97;20.45;;;2.30;96.60;;;;;;5035828;28;20022;-84
2021/03/25 07:19:33;;;;;;;30.85;19.58;;;2.40;96.00;;;;;;5035128;28;20037;-84
2021/03/25 07:22:27;;;;;;;36.97;21.10;;;2.60;96.00;;;;;;5035652;28;20028;-84
2021/03/25 07:25:13;;;;;;;35.60;19.55;;;2.80;95.70;;;;;;5034635;28;20087;-85
2021/03/25 07:27:39;;;;;;;;;;;2.90;95.60;;;;;;5036877;28;20051;-83
2021/03/25 07:30:12;;;;;;;30.92;18.85;;;3.00;95.10;;;;;;5036948;28;20326;-83
2021/03/25 07:32:49;;;;;;;35.13;20.25;;;3.10;95.10;;;;;;5035113;28;20033;-82
2021/03/25 07:35:37;;;;;;;31.83;19.52;;;3.30;95.00;;;;;;5035071;28;20091;-83
2021/03/25 07:38:24;;;;;;;37.78;19.33;;;3.60;95.10;;;;;;5035101;28;20021;-84
2021/03/25 07:41:02;;;;;;;30.40;18.08;;;3.90;93.60;;;;;;5034946;28;20036;-84
2021/03/25 07:43:29;;;;;;;29.95;17.95;;;4.10;92.90;;;;;;5034339;28;20022;-85
2021/03/25 07:46:32;;;;;;;30.10;17.85;;;4.30;92.70;;;;;;5034957;28;20036;-84
2021/03/25 07:49:12;;;;;;;34.03;18.45;;;4.50;91.60;;;;;;5012810;28;20524;-84
2021/03/25 07:52:15;;;;;;;30.10;17.30;;;4.70;92.00;;;;;;5034321;28;20079;-85
2021/03/25 07:54:42;;;;;;;30.27;14.82;;;5.00;92.00;;;;;;5011529;28;20137;-82
2021/03/25 07:57:13;;;;;;;26.40;15.13;;;5.40;87.10;;;;;;5033737;28;20583;-83
2021/03/25 07:59:57;;;;;;;25.98;16.05;;;5.70;83.20;;;;;;5034235;28;20112;-82
2021/03/25 08:02:30;;;;;;;23.48;14.93;;;6.00;83.50;;;;;;5033994;28;20132;-83
2021/03/25 08:05:12;;;;;;;23.10;15.32;;;6.30;80.20;;;;;;5033925;28;20141;-82
2021/03/25 08:07:40;;;;;;;28.35;17.33;;;6.40;79.50;;;;;;5033832;28;20404;-84
2021/03/25 08:10:06;;;;;;;25.20;16.92;;;6.60;79.50;;;;;;5034097;28;20029;-84
2021/03/25 08:12:35;;;;;;;26.50;16.02;;;6.70;77.10;;;;;;5033939;28;20164;-83
2021/03/25 08:15:19;;;;;;;27.23;17.17;;;6.80;78.70;;;;;;5035447;28;20112;-85
2021/03/25 08:18:26;;;;;;;30.10;17.23;;;7.00;76.90;;;;;;5034274;28;20036;-83
2021/03/25 08:20:52;;;;;;;;;;;7.10;74.90;;;;;;5035510;28;20025;-84
2021/03/25 08:23:48;;;;;;;25.27;15.52;;;7.30;73.90;;;;;;5033490;28;20314;-84
2021/03/25 08:26:23;;;;;;;26.52;17.10;;;7.40;73.80;;;;;;5034454;28;20030;-83
2021/03/25 08:29:08;;;;;;;25.63;17.17;;;7.50;76.40;;;;;;5034572;28;20120;-83
2021/03/25 08:31:38;;;;;;;29.63;16.95;;;7.70;75.40;;;;;;5034413;28;20428;-85
2021/03/25 08:34:10;;;;;;;34.80;16.77;;;7.80;74.90;;;;;;5034695;28;20021;-83
2021/03/25 08:36:44;;;;;;;28.70;15.82;;;7.90;72.80;;;;;;5034146;28;20071;-82
2021/03/25 08:39:28;;;;;;;24.85;16.17;;;8.10;72.90;;;;;;5034181;28;20036;-83
2021/03/25 08:42:05;;;;;;;25.55;16.83;;;8.30;72.30;;;;;;5033781;28;20112;-84
2021/03/25 08:44:46;;;;;;;24.02;16.65;;;8.30;72.50;;;;;;5034382;28;20548;-85
2021/03/25 08:47:21;;;;;;;28.38;17.05;;;8.30;71.30;;;;;;5034460;28;20018;-84
2021/03/25 08:49:57;;;;;;;28.67;16.83;;;8.30;70.00;;;;;;5036652;28;20057;-86
2021/03/25 08:52:25;;;;;;;23.98;16.55;;;8.40;71.60;;;;;;5034979;28;20029;-83
2021/03/25 08:55:02;;;;;;;16.02;9.00;;;8.60;68.60;;;;;;5033886;28;20033;-84
2021/03/25 08:57:32;;;;;;;22.80;15.57;;;8.90;87.60;;;;;;5033564;28;20030;-83
2021/03/25 09:00:21;;;;;;;27.40;16.20;;;9.60;68.90;;;;;;5033978;28;20528;-78
2021/03/25 09:03:04;;;;;;;27.98;17.30;;;9.60;67.20;;;;;;5031339;28;20148;-78
2021/03/25 09:05:40;;;;;;;29.27;17.08;;;9.80;67.40;;;;;;5032319;28;20033;-80
2021/03/25 09:08:15;;;;;;;27.38;15.70;;;10.00;64.80;;;;;;5031535;28;20389;-82
2021/03/25 09:10:45;;;;;;;28.42;17.42;;;10.00;64.10;;;;;;5017203;28;20116;-86
2021/03/25 09:13:15;;;;;;;26.50;16.80;;;9.90;62.20;;;;;;5032506;28;20025;-83
2021/03/25 09:15:45;;;;;;;24.27;16.17;;;9.90;64.10;;;;;;5032651;28;20075;-88
2021/03/25 09:18:23;;;;;;;30.50;16.42;;;9.90;62.50;;;;;;5032676;28;20018;-86
2021/03/25 09:20:58;;;;;;;24.90;17.05;;;9.60;61.80;;;;;;5032870;28;20026;-82
2021/03/25 09:23:30;;;;;;;23.27;15.55;;;9.50;63.80;;;;;;5033045;28;20021;-84
2021/03/25 09:26:00;;;;;;;25.60;15.82;;;9.60;61.20;;;;;;5033313;28;20033;-83
2021/03/25 09:31:32;;;;;;;25.85;16.35;;;9.70;63.70;;;;;;5030912;28;20033;-85
2021/03/25 09:33:58;;;;;;;25.98;17.48;;;9.70;61.70;;;;;;5035073;28;20480;-83
2021/03/25 09:36:27;;;;;;;26.42;17.02;;;9.70;63.00;;;;;;5037267;28;20026;-86
2021/03/25 09:38:58;;;;;;;25.23;16.58;;;9.70;63.10;;;;;;5036289;28;20079;-83
2021/03/25 09:41:31;;;;;;;23.92;17.13;;;9.90;63.00;;;;;;5036453;28;20057;-83
2021/03/25 09:44:09;;;;;;;23.75;16.77;;;10.00;61.70;;;;;;5035782;28;20029;-84
2021/03/25 09:46:40;;;;;;;26.85;17.40;;;10.10;61.60;;;;;;5035779;28;20021;-85
2021/03/25 09:49:39;;;;;;;27.65;17.65;;;10.30;61.80;;;;;;5036445;28;20080;-85
2021/03/25 09:52:07;;;;;;;24.45;16.65;;;10.40;61.70;;;;;;5036097;28;20372;-84
2021/03/25 09:54:53;;;;;;;24.67;16.80;;;10.60;61.70;;;;;;5035857;28;20026;-85
2021/03/25 09:59:56;;;;;;;25.05;17.35;;;10.60;59.50;;;;;;5037427;28;20040;-80
2021/03/25 10:02:37;;;;;;;24.23;17.48;;;10.60;58.00;;;;;;5034506;28;20401;-83
2021/03/25 10:05:25;;;;;;;25.05;17.25;;;10.70;58.40;;;;;;5034533;28;20392;-81
2021/03/25 10:07:51;;;;;;;22.73;16.75;;;10.80;58.30;;;;;;5034794;28;20029;-86
2021/03/25 10:10:32;;;;;;;21.88;16.08;;;10.90;58.20;;;;;;5035787;28;20029;-82
2021/03/25 10:13:01;;;;;;;25.23;16.88;;;11.00;58.00;;;;;;5035450;28;20025;-85
2021/03/25 10:15:34;;;;;;;27.33;18.02;;;11.00;58.20;;;;;;5035387;28;20037;-82
2021/03/25 10:18:02;;;;;;;28.33;17.85;;;11.00;57.70;;;;;;5035677;28;20014;-82
2021/03/25 10:20:48;;;;;;;23.20;16.60;;;10.90;57.50;;;;;;5037365;28;20099;-86
2021/03/25 10:23:34;;;;;;;26.92;16.63;;;11.10;57.30;;;;;;5037510;28;20021;-84
2021/03/25 10:26:28;;;;;;;25.38;17.05;;;11.20;57.10;;;;;;5035613;28;20146;-84
2021/03/25 10:29:11;;;;;;;25.35;16.80;;;11.30;58.00;;;;;;5035825;28;20037;-85
2021/03/25 10:31:45;;;;;;;27.83;17.52;;;11.40;56.60;;;;;;5035756;28;20053;-86
2021/03/25 10:34:44;;;;;;;26.13;17.50;;;11.50;56.50;;;;;;5035881;28;20025;-85
2021/03/25 10:37:39;;;;;;;23.80;16.75;;;11.50;56.10;;;;;;5035735;28;20451;-86
2021/03/25 10:40:20;;;;;;;26.65;17.35;;;11.60;55.40;;;;;;5036211;28;20029;-86
2021/03/25 10:43:05;;;;;;;24.23;16.13;;;11.70;55.30;;;;;;5036393;28;20048;-87
2021/03/25 10:45:53;;;;;;;26.58;18.48;;;11.80;54.90;;;;;;5035398;28;20393;-86
2021/03/25 10:48:28;;;;;;;25.75;17.65;;;11.70;53.70;;;;;;5036270;28;20370;-85
2021/03/25 10:51:12;;;;;;;28.95;17.85;;;11.70;54.30;;;;;;5036089;28;20056;-85
2021/03/25 10:53:40;;;;;;;27.10;17.67;;;11.70;54.70;;;;;;5035580;28;20032;-84
2021/03/25 10:56:14;;;;;;;32.05;17.90;;;11.80;54.40;;;;;;5035836;28;20032;-85
2021/03/25 10:58:43;;;;;;;25.15;17.35;;;11.90;54.20;;;;;;5036791;28;20548;-82
2021/03/25 11:01:24;;;;;;;29.05;18.27;;;11.90;53.60;;;;;;5036208;28;20049;-86
2021/03/25 11:03:50;;;;;;;26.65;18.65;;;11.80;54.40;;;;;;5035994;28;20156;-83
2021/03/25 11:06:33;;;;;;;25.02;17.70;;;12.00;54.70;;;;;;5035821;28;20052;-86
2021/03/25 11:09:26;;;;;;;24.63;17.15;;;12.20;53.10;;;;;;5036193;28;20045;-84
2021/03/25 11:12:03;;;;;;;27.48;17.35;;;12.30;54.00;;;;;;5036046;28;20025;-85
2021/03/25 11:14:40;;;;;;;26.52;17.75;;;12.30;52.90;;;;;;5035725;28;20079;-86
2021/03/25 11:17:18;;;;;;;24.42;17.15;;;12.40;53.70;;;;;;5035815;28;20014;-82
2021/03/25 11:19:47;;;;;;;24.15;17.73;;;12.50;53.70;;;;;;5035060;28;20025;-87
2021/03/25 11:22:13;;;;;;;24.88;18.02;;;12.60;52.80;;;;;;5035682;28;20088;-86
2021/03/25 11:24:40;;;;;;;27.90;17.15;;;12.70;52.20;;;;;;5035532;28;20026;-86
2021/03/25 11:27:26;;;;;;;25.50;16.73;;;12.60;51.60;;;;;;5035715;28;20021;-86
2021/03/25 11:30:07;;;;;;;28.02;17.92;;;12.70;51.80;;;;;;5035579;28;20068;-84
2021/03/25 11:32:39;;;;;;;29.38;17.65;;;12.90;51.60;;;;;;5035598;28;20075;-86
2021/03/25 11:35:26;;;;;;;25.73;16.67;;;12.90;51.80;;;;;;5034950;28;20033;-86
2021/03/25 11:37:53;;;;;;;25.05;16.48;;;13.00;51.60;;;;;;5036452;28;20029;-88
2021/03/25 11:40:23;;;;;;;27.40;17.65;;;13.00;51.10;;;;;;5035173;28;20021;-84
2021/03/25 11:43:09;;;;;;;25.42;17.52;;;13.10;50.30;;;;;;5034544;28;20029;-84
2021/03/25 11:45:45;;;;;;;24.27;16.90;;;13.10;50.90;;;;;;5034570;28;20026;-88
2021/03/25 11:48:29;;;;;;;27.45;16.88;;;13.20;50.30;;;;;;5033517;28;20037;-82
2021/03/25 11:51:16;;;;;;;21.17;15.75;;;13.30;51.10;;;;;;5033903;28;20025;-84
2021/03/25 11:53:47;;;;;;;23.70;16.50;;;13.40;49.30;;;;;;5034529;28;20126;-83
2021/03/25 11:56:23;;;;;;;25.55;16.33;;;13.40;49.40;;;;;;5034711;28;20046;-85
2021/03/25 11:59:14;;;;;;;34.72;24.77;;;13.50;49.30;;;;;;5034589;28;20036;-81
2021/03/25 12:01:41;;;;;;;21.50;15.65;;;13.50;48.70;;;;;;5032901;28;20046;-82
2021/03/25 12:04:25;;;;;;;23.35;14.80;;;13.60;48.90;;;;;;5033078;28;20057;-82
2021/03/25 12:07:00;;;;;;;21.80;15.40;;;13.60;49.30;;;;;;5032699;28;20022;-83
2021/03/25 12:09:26;;;;;;;23.35;16.25;;;13.60;48.90;;;;;;5033707;28;20034;-86
2021/03/25 12:11:52;;;;;;;22.83;15.75;;;13.70;49.10;;;;;;5034301;28;20705;-85
2021/03/25 12:14:20;;;;;;;22.95;15.27;;;13.60;47.80;;;;;;5033494;28;20139;-88
2021/03/25 12:16:58;;;;;;;20.63;14.93;;;13.60;49.10;;;;;;5033683;28;20152;-86
2021/03/25 12:19:24;;;;;;;21.65;14.43;;;13.70;48.70;;;;;;5034075;28;20029;-84
2021/03/25 12:21:50;;;;;;;23.33;15.90;;;13.80;49.40;;;;;;5033526;28;20033;-88
2021/03/25 12:24:16;;;;;;;21.08;14.52;;;13.90;48.30;;;;;;5033280;28;20083;-88
2021/03/25 12:26:42;;;;;;;25.13;16.17;;;14.00;48.20;;;;;;5033217;28;20116;-84
2021/03/25 12:29:08;;;;;;;26.15;16.50;;;14.00;48.60;;;;;;5033295;28;20061;-83
2021/03/25 12:31:39;;;;;;;21.90;16.30;;;14.20;47.30;;;;;;5033613;28;20480;-85
2021/03/25 12:34:06;;;;;;;22.98;16.08;;;14.10;47.10;;;;;;5033362;28;20025;-85
2021/03/25 12:36:32;;;;;;;20.63;14.73;;;14.00;47.00;;;;;;5032204;28;20060;-89
2021/03/25 12:38:58;;;;;;;19.08;14.00;;;14.10;49.40;;;;;;5032760;28;20029;-88
2021/03/25 12:41:38;;;;;;;22.95;15.85;;;14.20;49.20;;;;;;5032899;28;20026;-82
2021/03/25 12:44:06;;;;;;;21.80;15.02;;;14.20;47.60;;;;;;5032774;28;20076;-81
2021/03/25 12:46:32;;;;;;;21.35;15.70;;;14.20;47.10;;;;;;5032582;28;20052;-82
2021/03/25 12:48:58;;;;;;;27.17;16.13;;;14.20;48.60;;;;;;5032484;28;20033;-83
2021/03/25 12:51:23;;;;;;;23.52;16.90;;;14.20;47.50;;;;;;5034989;28;20033;-87
2021/03/25 12:53:50;;;;;;;23.40;16.60;;;14.10;47.50;;;;;;5032991;28;20065;-86
2021/03/25 12:56:27;;;;;;;23.38;16.10;;;14.00;47.60;;;;;;5032220;28;20041;-88
2021/03/25 12:58:54;;;;;;;23.85;17.23;;;14.10;47.80;;;;;;5032511;28;20083;-84
2021/03/25 13:01:26;;;;;;;24.42;16.20;;;14.10;48.60;;;;;;5032415;28;20075;-86
2021/03/25 13:03:52;;;;;;;26.70;16.95;;;14.40;48.20;;;;;;5032691;28;20044;-82
2021/03/25 13:06:19;;;;;;;25.13;17.40;;;14.50;46.00;;;;;;5032478;28;20026;-86
2021/03/25 13:08:45;;;;;;;23.45;16.65;;;14.30;45.80;;;;;;5034367;28;20030;-87
2021/03/25 13:11:20;;;;;;;24.52;16.58;;;14.30;47.10;;;;;;5036035;28;20503;-86
2021/03/25 13:13:46;;;;;;;24.10;15.80;;;14.40;47.50;;;;;;5036003;28;20040;-84
2021/03/25 13:16:12;;;;;;;22.75;16.40;;;14.50;47.70;;;;;;5036976;28;20029;-87